sensor_id;sensor_type;location;lat;lon;timestamp;P1;durP1;ratioP1;P2;durP2;ratioP2
19030;SDS011;9648;51.130;13.978;2023-10-31T00:01:00;3.22;;;2.33;;
19030;SDS011;9648;51.130;13.978;2023-10-31T00:04:02;3.17;;;2.20;;
19030;SDS011;9648;51.130;13.978;2023-10-31T00:07:05;3.58;;;2.92;;
19030;SDS011;9648;51.130;13.978;2023-10-31T00:10:07;4.05;;;2.85;;
19030;SDS011;9648;51.130;13.978;2023-10-31T00:13:10;5.40;;;3.35;;
19030;SDS011;9648;51.130;13.978;2023-10-31T00:16:12;5.50;;;2.88;;
19030;SDS011;9648;51.130;13.978;2023-10-31T00:19:13;4.47;;;2.53;;
19030;SDS011;9648;51.130;13.978;2023-10-31T00:22:16;4.72;;;2.80;;
19030;SDS011;9648;51.130;13.978;2023-10-31T00:25:18;3.47;;;2.50;;
19030;SDS011;9648;51.130;13.978;2023-10-31T00:28:20;2.88;;;2.33;;
19030;SDS011;9648;51.130;13.978;2023-10-31T00:31:22;2.67;;;2.20;;
19030;SDS011;9648;51.130;13.978;2023-10-31T00:34:24;3.03;;;2.20;;
19030;SDS011;9648;51.130;13.978;2023-10-31T00:37:26;4.03;;;2.70;;
19030;SDS011;9648;51.130;13.978;2023-10-31T00:40:28;4.07;;;2.35;;
19030;SDS011;9648;51.130;13.978;2023-10-31T00:43:30;3.28;;;2.15;;
19030;SDS011;9648;51.130;13.978;2023-10-31T00:46:31;3.55;;;2.20;;
19030;SDS011;9648;51.130;13.978;2023-10-31T00:49:33;2.75;;;2.20;;
19030;SDS011;9648;51.130;13.978;2023-10-31T00:52:36;3.08;;;2.20;;
19030;SDS011;9648;51.130;13.978;2023-10-31T00:55:38;3.10;;;2.20;;
19030;SDS011;9648;51.130;13.978;2023-10-31T00:58:39;3.00;;;2.22;;
19030;SDS011;9648;51.130;13.978;2023-10-31T01:01:42;3.00;;;2.17;;
19030;SDS011;9648;51.130;13.978;2023-10-31T01:04:44;2.88;;;1.90;;
19030;SDS011;9648;51.130;13.978;2023-10-31T01:07:47;2.33;;;1.77;;
19030;SDS011;9648;51.130;13.978;2023-10-31T01:10:49;2.15;;;1.65;;
19030;SDS011;9648;51.130;13.978;2023-10-31T01:13:50;1.90;;;1.60;;
19030;SDS011;9648;51.130;13.978;2023-10-31T01:16:52;1.70;;;1.60;;
19030;SDS011;9648;51.130;13.978;2023-10-31T01:19:54;1.75;;;1.60;;
19030;SDS011;9648;51.130;13.978;2023-10-31T01:22:57;2.05;;;1.75;;
19030;SDS011;9648;51.130;13.978;2023-10-31T01:25:58;1.80;;;1.52;;
19030;SDS011;9648;51.130;13.978;2023-10-31T01:29:00;1.70;;;1.58;;
19030;SDS011;9648;51.130;13.978;2023-10-31T01:32:02;1.88;;;1.50;;
19030;SDS011;9648;51.130;13.978;2023-10-31T01:35:05;1.85;;;1.50;;
19030;SDS011;9648;51.130;13.978;2023-10-31T01:38:08;1.70;;;1.30;;
19030;SDS011;9648;51.130;13.978;2023-10-31T01:41:11;2.13;;;1.90;;
19030;SDS011;9648;51.130;13.978;2023-10-31T01:44:13;2.80;;;1.85;;
19030;SDS011;9648;51.130;13.978;2023-10-31T01:47:14;1.67;;;1.30;;
19030;SDS011;9648;51.130;13.978;2023-10-31T01:50:16;3.20;;;2.10;;
19030;SDS011;9648;51.130;13.978;2023-10-31T01:53:20;2.90;;;2.22;;
19030;SDS011;9648;51.130;13.978;2023-10-31T01:56:22;5.55;;;2.80;;
19030;SDS011;9648;51.130;13.978;2023-10-31T01:59:24;2.40;;;2.20;;
19030;SDS011;9648;51.130;13.978;2023-10-31T02:02:26;5.18;;;3.40;;
19030;SDS011;9648;51.130;13.978;2023-10-31T02:05:28;4.70;;;3.38;;
19030;SDS011;9648;51.130;13.978;2023-10-31T02:08:36;4.88;;;3.40;;
19030;SDS011;9648;51.130;13.978;2023-10-31T02:11:38;4.25;;;3.40;;
19030;SDS011;9648;51.130;13.978;2023-10-31T02:14:39;5.72;;;3.78;;
19030;SDS011;9648;51.130;13.978;2023-10-31T02:17:41;5.85;;;3.80;;
19030;SDS011;9648;51.130;13.978;2023-10-31T02:20:43;5.90;;;3.92;;
19030;SDS011;9648;51.130;13.978;2023-10-31T02:23:55;7.57;;;4.53;;
19030;SDS011;9648;51.130;13.978;2023-10-31T02:26:58;6.57;;;4.75;;
19030;SDS011;9648;51.130;13.978;2023-10-31T02:30:00;5.38;;;3.80;;
19030;SDS011;9648;51.130;13.978;2023-10-31T02:33:01;6.18;;;4.22;;
19030;SDS011;9648;51.130;13.978;2023-10-31T02:36:03;6.82;;;5.05;;
19030;SDS011;9648;51.130;13.978;2023-10-31T02:39:06;8.02;;;5.68;;
19030;SDS011;9648;51.130;13.978;2023-10-31T02:42:08;11.80;;;6.10;;
19030;SDS011;9648;51.130;13.978;2023-10-31T02:45:10;10.00;;;5.60;;
19030;SDS011;9648;51.130;13.978;2023-10-31T02:48:12;9.32;;;6.43;;
19030;SDS011;9648;51.130;13.978;2023-10-31T02:51:14;9.77;;;6.50;;
19030;SDS011;9648;51.130;13.978;2023-10-31T02:54:17;8.88;;;6.55;;
19030;SDS011;9648;51.130;13.978;2023-10-31T02:57:18;13.13;;;7.65;;
19030;SDS011;9648;51.130;13.978;2023-10-31T03:00:20;10.27;;;7.25;;
19030;SDS011;9648;51.130;13.978;2023-10-31T03:03:22;13.35;;;9.13;;
19030;SDS011;9648;51.130;13.978;2023-10-31T03:06:23;13.10;;;9.75;;
19030;SDS011;9648;51.130;13.978;2023-10-31T03:09:26;14.23;;;9.43;;
19030;SDS011;9648;51.130;13.978;2023-10-31T03:12:28;14.90;;;9.10;;
19030;SDS011;9648;51.130;13.978;2023-10-31T03:15:30;16.63;;;10.65;;
19030;SDS011;9648;51.130;13.978;2023-10-31T03:18:32;17.00;;;11.40;;
19030;SDS011;9648;51.130;13.978;2023-10-31T03:21:33;21.58;;;11.65;;
19030;SDS011;9648;51.130;13.978;2023-10-31T03:24:36;17.80;;;10.90;;
19030;SDS011;9648;51.130;13.978;2023-10-31T03:27:38;16.27;;;10.73;;
19030;SDS011;9648;51.130;13.978;2023-10-31T03:30:40;21.83;;;12.23;;
19030;SDS011;9648;51.130;13.978;2023-10-31T03:33:41;17.15;;;11.88;;
19030;SDS011;9648;51.130;13.978;2023-10-31T03:36:43;22.15;;;13.20;;
19030;SDS011;9648;51.130;13.978;2023-10-31T03:39:46;19.42;;;12.65;;
19030;SDS011;9648;51.130;13.978;2023-10-31T03:42:48;20.00;;;11.82;;
19030;SDS011;9648;51.130;13.978;2023-10-31T03:45:49;20.48;;;12.23;;
19030;SDS011;9648;51.130;13.978;2023-10-31T03:48:51;20.95;;;11.73;;
19030;SDS011;9648;51.130;13.978;2023-10-31T03:51:52;20.40;;;12.65;;
19030;SDS011;9648;51.130;13.978;2023-10-31T03:54:55;21.02;;;11.43;;
19030;SDS011;9648;51.130;13.978;2023-10-31T03:57:57;18.40;;;11.27;;
19030;SDS011;9648;51.130;13.978;2023-10-31T04:00:59;20.63;;;11.70;;
19030;SDS011;9648;51.130;13.978;2023-10-31T04:04:00;18.70;;;11.35;;
19030;SDS011;9648;51.130;13.978;2023-10-31T04:07:02;19.58;;;11.45;;
19030;SDS011;9648;51.130;13.978;2023-10-31T04:10:06;21.13;;;11.50;;
19030;SDS011;9648;51.130;13.978;2023-10-31T04:13:10;16.63;;;10.52;;
19030;SDS011;9648;51.130;13.978;2023-10-31T04:16:12;17.17;;;9.70;;
19030;SDS011;9648;51.130;13.978;2023-10-31T04:19:14;18.67;;;10.23;;
19030;SDS011;9648;51.130;13.978;2023-10-31T04:22:15;18.67;;;10.00;;
19030;SDS011;9648;51.130;13.978;2023-10-31T04:25:19;15.70;;;9.65;;
19030;SDS011;9648;51.130;13.978;2023-10-31T04:28:20;17.95;;;9.18;;
19030;SDS011;9648;51.130;13.978;2023-10-31T04:31:22;14.65;;;8.57;;
19030;SDS011;9648;51.130;13.978;2023-10-31T04:34:24;14.60;;;8.75;;
19030;SDS011;9648;51.130;13.978;2023-10-31T04:37:26;13.70;;;8.35;;
19030;SDS011;9648;51.130;13.978;2023-10-31T04:40:29;12.93;;;7.80;;
19030;SDS011;9648;51.130;13.978;2023-10-31T04:43:30;11.77;;;7.38;;
19030;SDS011;9648;51.130;13.978;2023-10-31T04:46:32;10.97;;;6.53;;
19030;SDS011;9648;51.130;13.978;2023-10-31T04:49:34;9.98;;;6.88;;
19030;SDS011;9648;51.130;13.978;2023-10-31T04:52:36;9.10;;;5.40;;
19030;SDS011;9648;51.130;13.978;2023-10-31T04:55:39;8.82;;;5.35;;
19030;SDS011;9648;51.130;13.978;2023-10-31T04:58:41;9.00;;;5.10;;
19030;SDS011;9648;51.130;13.978;2023-10-31T05:01:47;8.50;;;4.80;;
19030;SDS011;9648;51.130;13.978;2023-10-31T05:04:49;8.53;;;5.03;;
19030;SDS011;9648;51.130;13.978;2023-10-31T05:07:51;6.47;;;4.18;;
19030;SDS011;9648;51.130;13.978;2023-10-31T05:10:54;6.87;;;3.80;;
19030;SDS011;9648;51.130;13.978;2023-10-31T05:13:55;6.90;;;3.90;;
19030;SDS011;9648;51.130;13.978;2023-10-31T05:16:57;5.87;;;3.47;;
19030;SDS011;9648;51.130;13.978;2023-10-31T05:19:59;4.70;;;3.20;;
19030;SDS011;9648;51.130;13.978;2023-10-31T05:23:00;6.63;;;3.07;;
19030;SDS011;9648;51.130;13.978;2023-10-31T05:26:05;3.87;;;2.90;;
19030;SDS011;9648;51.130;13.978;2023-10-31T05:29:07;6.60;;;3.90;;
19030;SDS011;9648;51.130;13.978;2023-10-31T05:32:11;5.90;;;4.20;;
19030;SDS011;9648;51.130;13.978;2023-10-31T05:35:13;8.00;;;4.30;;
19030;SDS011;9648;51.130;13.978;2023-10-31T05:38:15;7.07;;;4.40;;
19030;SDS011;9648;51.130;13.978;2023-10-31T05:41:18;7.00;;;3.60;;
19030;SDS011;9648;51.130;13.978;2023-10-31T05:44:19;5.97;;;3.37;;
19030;SDS011;9648;51.130;13.978;2023-10-31T05:47:21;4.90;;;3.43;;
19030;SDS011;9648;51.130;13.978;2023-10-31T05:50:23;5.40;;;3.53;;
19030;SDS011;9648;51.130;13.978;2023-10-31T05:53:24;6.63;;;3.17;;
19030;SDS011;9648;51.130;13.978;2023-10-31T05:56:27;4.30;;;2.83;;
19030;SDS011;9648;51.130;13.978;2023-10-31T05:59:29;6.10;;;2.87;;
19030;SDS011;9648;51.130;13.978;2023-10-31T06:02:31;5.33;;;2.90;;
19030;SDS011;9648;51.130;13.978;2023-10-31T06:05:32;7.07;;;2.90;;
19030;SDS011;9648;51.130;13.978;2023-10-31T06:08:36;3.53;;;2.50;;
19030;SDS011;9648;51.130;13.978;2023-10-31T06:11:40;2.93;;;2.20;;
19030;SDS011;9648;51.130;13.978;2023-10-31T06:14:42;3.23;;;2.13;;
19030;SDS011;9648;51.130;13.978;2023-10-31T06:17:44;3.28;;;2.10;;
19030;SDS011;9648;51.130;13.978;2023-10-31T06:20:46;4.20;;;2.07;;
19030;SDS011;9648;51.130;13.978;2023-10-31T06:23:48;2.23;;;1.80;;
19030;SDS011;9648;51.130;13.978;2023-10-31T06:26:51;2.83;;;1.93;;
19030;SDS011;9648;51.130;13.978;2023-10-31T06:29:52;2.50;;;2.00;;
19030;SDS011;9648;51.130;13.978;2023-10-31T06:32:57;2.20;;;1.50;;
19030;SDS011;9648;51.130;13.978;2023-10-31T06:35:59;2.63;;;1.80;;
19030;SDS011;9648;51.130;13.978;2023-10-31T06:39:01;2.13;;;1.50;;
19030;SDS011;9648;51.130;13.978;2023-10-31T06:42:05;2.30;;;1.50;;
19030;SDS011;9648;51.130;13.978;2023-10-31T06:45:07;3.43;;;1.50;;
19030;SDS011;9648;51.130;13.978;2023-10-31T06:48:09;1.43;;;1.10;;
19030;SDS011;9648;51.130;13.978;2023-10-31T06:51:11;2.90;;;1.30;;
19030;SDS011;9648;51.130;13.978;2023-10-31T06:54:12;1.30;;;1.17;;
19030;SDS011;9648;51.130;13.978;2023-10-31T06:57:15;1.13;;;1.00;;
19030;SDS011;9648;51.130;13.978;2023-10-31T07:00:17;1.90;;;1.00;;
19030;SDS011;9648;51.130;13.978;2023-10-31T07:03:19;1.57;;;0.87;;
19030;SDS011;9648;51.130;13.978;2023-10-31T07:06:21;1.10;;;0.90;;
19030;SDS011;9648;51.130;13.978;2023-10-31T07:09:23;2.13;;;0.80;;
19030;SDS011;9648;51.130;13.978;2023-10-31T07:12:26;2.73;;;1.10;;
19030;SDS011;9648;51.130;13.978;2023-10-31T07:15:28;1.07;;;0.93;;
19030;SDS011;9648;51.130;13.978;2023-10-31T07:18:30;1.27;;;0.80;;
19030;SDS011;9648;51.130;13.978;2023-10-31T07:21:31;1.37;;;0.80;;
19030;SDS011;9648;51.130;13.978;2023-10-31T07:24:33;0.67;;;0.50;;
19030;SDS011;9648;51.130;13.978;2023-10-31T07:27:37;0.73;;;0.70;;
19030;SDS011;9648;51.130;13.978;2023-10-31T07:30:39;2.30;;;0.70;;
19030;SDS011;9648;51.130;13.978;2023-10-31T07:33:40;1.37;;;0.90;;
19030;SDS011;9648;51.130;13.978;2023-10-31T07:36:42;0.97;;;0.70;;
19030;SDS011;9648;51.130;13.978;2023-10-31T07:39:44;1.90;;;0.60;;
19030;SDS011;9648;51.130;13.978;2023-10-31T07:42:47;1.30;;;0.50;;
19030;SDS011;9648;51.130;13.978;2023-10-31T07:45:48;1.77;;;0.70;;
19030;SDS011;9648;51.130;13.978;2023-10-31T07:48:50;0.73;;;0.60;;
19030;SDS011;9648;51.130;13.978;2023-10-31T07:51:52;2.77;;;0.60;;
19030;SDS011;9648;51.130;13.978;2023-10-31T07:54:53;0.50;;;0.50;;
19030;SDS011;9648;51.130;13.978;2023-10-31T07:57:56;1.03;;;0.40;;
19030;SDS011;9648;51.130;13.978;2023-10-31T08:00:58;1.30;;;0.75;;
19030;SDS011;9648;51.130;13.978;2023-10-31T08:04:00;1.00;;;0.60;;
19030;SDS011;9648;51.130;13.978;2023-10-31T08:07:02;1.03;;;0.50;;
19030;SDS011;9648;51.130;13.978;2023-10-31T08:10:04;1.47;;;0.63;;
19030;SDS011;9648;51.130;13.978;2023-10-31T08:13:07;0.80;;;0.50;;
19030;SDS011;9648;51.130;13.978;2023-10-31T08:16:16;0.60;;;0.50;;
19030;SDS011;9648;51.130;13.978;2023-10-31T08:19:18;0.63;;;0.50;;
19030;SDS011;9648;51.130;13.978;2023-10-31T08:22:20;1.05;;;0.50;;
19030;SDS011;9648;51.130;13.978;2023-10-31T08:25:22;0.50;;;0.40;;
19030;SDS011;9648;51.130;13.978;2023-10-31T08:28:25;3.25;;;1.80;;
19030;SDS011;9648;51.130;13.978;2023-10-31T08:31:27;5.80;;;2.00;;
19030;SDS011;9648;51.130;13.978;2023-10-31T08:34:28;2.95;;;1.20;;
19030;SDS011;9648;51.130;13.978;2023-10-31T08:37:30;1.77;;;1.30;;
19030;SDS011;9648;51.130;13.978;2023-10-31T08:40:32;1.73;;;1.10;;
19030;SDS011;9648;51.130;13.978;2023-10-31T08:43:35;1.27;;;0.80;;
19030;SDS011;9648;51.130;13.978;2023-10-31T08:46:36;2.03;;;1.15;;
19030;SDS011;9648;51.130;13.978;2023-10-31T08:49:38;0.60;;;0.60;;
19030;SDS011;9648;51.130;13.978;2023-10-31T08:52:40;3.00;;;0.53;;
19030;SDS011;9648;51.130;13.978;2023-10-31T08:55:41;1.63;;;0.60;;
19030;SDS011;9648;51.130;13.978;2023-10-31T08:58:46;1.00;;;0.53;;
19030;SDS011;9648;51.130;13.978;2023-10-31T09:01:47;0.60;;;0.53;;
19030;SDS011;9648;51.130;13.978;2023-10-31T09:04:51;0.40;;;0.40;;
19030;SDS011;9648;51.130;13.978;2023-10-31T09:07:53;0.93;;;0.50;;
19030;SDS011;9648;51.130;13.978;2023-10-31T09:10:55;0.60;;;0.50;;
19030;SDS011;9648;51.130;13.978;2023-10-31T09:13:58;0.80;;;0.47;;
19030;SDS011;9648;51.130;13.978;2023-10-31T09:17:00;1.45;;;0.60;;
19030;SDS011;9648;51.130;13.978;2023-10-31T09:20:02;0.50;;;0.40;;
19030;SDS011;9648;51.130;13.978;2023-10-31T09:23:05;3.93;;;0.50;;
19030;SDS011;9648;51.130;13.978;2023-10-31T09:26:06;0.38;;;0.32;;
19030;SDS011;9648;51.130;13.978;2023-10-31T09:29:10;1.40;;;0.50;;
19030;SDS011;9648;51.130;13.978;2023-10-31T09:32:11;0.20;;;0.20;;
19030;SDS011;9648;51.130;13.978;2023-10-31T09:35:13;0.70;;;0.50;;
19030;SDS011;9648;51.130;13.978;2023-10-31T09:38:14;0.55;;;0.40;;
19030;SDS011;9648;51.130;13.978;2023-10-31T09:41:16;0.40;;;0.40;;
19030;SDS011;9648;51.130;13.978;2023-10-31T09:44:21;1.58;;;0.40;;
19030;SDS011;9648;51.130;13.978;2023-10-31T09:47:22;0.50;;;0.40;;
19030;SDS011;9648;51.130;13.978;2023-10-31T09:50:24;0.70;;;0.40;;
19030;SDS011;9648;51.130;13.978;2023-10-31T09:53:26;0.80;;;0.32;;
19030;SDS011;9648;51.130;13.978;2023-10-31T09:56:30;1.63;;;0.50;;
19030;SDS011;9648;51.130;13.978;2023-10-31T09:59:36;0.45;;;0.40;;
19030;SDS011;9648;51.130;13.978;2023-10-31T10:02:37;1.17;;;0.50;;
19030;SDS011;9648;51.130;13.978;2023-10-31T10:05:39;0.55;;;0.45;;
19030;SDS011;9648;51.130;13.978;2023-10-31T10:08:45;0.32;;;0.30;;
19030;SDS011;9648;51.130;13.978;2023-10-31T10:11:47;0.93;;;0.50;;
19030;SDS011;9648;51.130;13.978;2023-10-31T10:14:50;1.67;;;0.40;;
19030;SDS011;9648;51.130;13.978;2023-10-31T10:17:51;0.80;;;0.30;;
19030;SDS011;9648;51.130;13.978;2023-10-31T10:20:56;0.30;;;0.30;;
19030;SDS011;9648;51.130;13.978;2023-10-31T10:23:58;0.47;;;0.40;;
19030;SDS011;9648;51.130;13.978;2023-10-31T10:27:00;0.82;;;0.45;;
19030;SDS011;9648;51.130;13.978;2023-10-31T10:30:03;0.63;;;0.40;;
19030;SDS011;9648;51.130;13.978;2023-10-31T10:33:05;1.20;;;0.35;;
19030;SDS011;9648;51.130;13.978;2023-10-31T10:36:08;0.43;;;0.40;;
19030;SDS011;9648;51.130;13.978;2023-10-31T10:39:10;0.30;;;0.30;;
19030;SDS011;9648;51.130;13.978;2023-10-31T10:42:14;0.45;;;0.40;;
19030;SDS011;9648;51.130;13.978;2023-10-31T10:45:20;0.38;;;0.38;;
19030;SDS011;9648;51.130;13.978;2023-10-31T10:48:22;0.52;;;0.40;;
19030;SDS011;9648;51.130;13.978;2023-10-31T10:51:24;0.82;;;0.70;;
19030;SDS011;9648;51.130;13.978;2023-10-31T10:54:32;0.50;;;0.30;;
19030;SDS011;9648;51.130;13.978;2023-10-31T10:57:37;0.30;;;0.30;;
19030;SDS011;9648;51.130;13.978;2023-10-31T11:00:42;0.30;;;0.30;;
19030;SDS011;9648;51.130;13.978;2023-10-31T11:03:43;0.50;;;0.38;;
19030;SDS011;9648;51.130;13.978;2023-10-31T11:06:46;0.30;;;0.30;;
19030;SDS011;9648;51.130;13.978;2023-10-31T11:09:48;1.08;;;0.40;;
19030;SDS011;9648;51.130;13.978;2023-10-31T11:12:50;1.15;;;0.60;;
19030;SDS011;9648;51.130;13.978;2023-10-31T11:15:59;1.45;;;0.50;;
19030;SDS011;9648;51.130;13.978;2023-10-31T11:19:05;0.77;;;0.50;;
19030;SDS011;9648;51.130;13.978;2023-10-31T11:22:07;0.73;;;0.40;;
19030;SDS011;9648;51.130;13.978;2023-10-31T11:25:10;0.50;;;0.40;;
19030;SDS011;9648;51.130;13.978;2023-10-31T11:28:13;0.30;;;0.30;;
19030;SDS011;9648;51.130;13.978;2023-10-31T11:31:17;1.02;;;0.50;;
19030;SDS011;9648;51.130;13.978;2023-10-31T11:34:19;0.65;;;0.47;;
19030;SDS011;9648;51.130;13.978;2023-10-31T11:37:25;1.58;;;0.40;;
19030;SDS011;9648;51.130;13.978;2023-10-31T11:40:27;1.33;;;0.60;;
19030;SDS011;9648;51.130;13.978;2023-10-31T11:43:36;0.65;;;0.50;;
19030;SDS011;9648;51.130;13.978;2023-10-31T11:46:53;0.50;;;0.50;;
19030;SDS011;9648;51.130;13.978;2023-10-31T11:49:57;0.57;;;0.47;;
19030;SDS011;9648;51.130;13.978;2023-10-31T11:53:03;1.15;;;0.60;;
19030;SDS011;9648;51.130;13.978;2023-10-31T11:56:06;0.85;;;0.30;;
19030;SDS011;9648;51.130;13.978;2023-10-31T11:59:08;0.47;;;0.35;;
19030;SDS011;9648;51.130;13.978;2023-10-31T12:02:15;0.38;;;0.30;;
19030;SDS011;9648;51.130;13.978;2023-10-31T12:05:18;3.00;;;0.40;;
19030;SDS011;9648;51.130;13.978;2023-10-31T12:08:26;0.80;;;0.40;;
19030;SDS011;9648;51.130;13.978;2023-10-31T12:11:28;0.28;;;0.28;;
19030;SDS011;9648;51.130;13.978;2023-10-31T12:14:30;0.60;;;0.35;;
19030;SDS011;9648;51.130;13.978;2023-10-31T12:17:33;0.22;;;0.22;;
19030;SDS011;9648;51.130;13.978;2023-10-31T12:20:46;0.30;;;0.30;;
19030;SDS011;9648;51.130;13.978;2023-10-31T12:23:48;0.60;;;0.40;;
19030;SDS011;9648;51.130;13.978;2023-10-31T12:26:50;0.52;;;0.30;;
19030;SDS011;9648;51.130;13.978;2023-10-31T12:29:59;1.02;;;0.50;;
19030;SDS011;9648;51.130;13.978;2023-10-31T12:33:03;0.30;;;0.30;;
19030;SDS011;9648;51.130;13.978;2023-10-31T12:36:05;1.67;;;0.40;;
19030;SDS011;9648;51.130;13.978;2023-10-31T12:39:07;1.00;;;0.40;;
19030;SDS011;9648;51.130;13.978;2023-10-31T12:42:11;1.10;;;0.40;;
19030;SDS011;9648;51.130;13.978;2023-10-31T12:45:13;0.60;;;0.40;;
19030;SDS011;9648;51.130;13.978;2023-10-31T12:48:16;0.50;;;0.50;;
19030;SDS011;9648;51.130;13.978;2023-10-31T12:51:25;0.85;;;0.40;;
19030;SDS011;9648;51.130;13.978;2023-10-31T12:54:27;2.28;;;0.80;;
19030;SDS011;9648;51.130;13.978;2023-10-31T12:57:35;1.67;;;1.15;;
19030;SDS011;9648;51.130;13.978;2023-10-31T13:00:37;2.28;;;0.98;;
19030;SDS011;9648;51.130;13.978;2023-10-31T13:03:49;2.63;;;1.20;;
19030;SDS011;9648;51.130;13.978;2023-10-31T13:06:56;1.83;;;1.23;;
19030;SDS011;9648;51.130;13.978;2023-10-31T13:09:59;1.25;;;0.70;;
19030;SDS011;9648;51.130;13.978;2023-10-31T13:13:01;1.33;;;0.82;;
19030;SDS011;9648;51.130;13.978;2023-10-31T13:16:03;0.55;;;0.40;;
19030;SDS011;9648;51.130;13.978;2023-10-31T13:19:06;0.85;;;0.40;;
19030;SDS011;9648;51.130;13.978;2023-10-31T13:22:08;0.75;;;0.65;;
19030;SDS011;9648;51.130;13.978;2023-10-31T13:25:13;1.88;;;0.73;;
19030;SDS011;9648;51.130;13.978;2023-10-31T13:28:16;1.40;;;0.70;;
19030;SDS011;9648;51.130;13.978;2023-10-31T13:31:17;3.30;;;0.82;;
19030;SDS011;9648;51.130;13.978;2023-10-31T13:34:20;1.38;;;0.70;;
19030;SDS011;9648;51.130;13.978;2023-10-31T13:37:23;1.20;;;0.90;;
19030;SDS011;9648;51.130;13.978;2023-10-31T13:40:24;1.60;;;0.95;;
19030;SDS011;9648;51.130;13.978;2023-10-31T13:43:26;3.20;;;1.30;;
19030;SDS011;9648;51.130;13.978;2023-10-31T13:46:27;76.28;;;23.63;;
19030;SDS011;9648;51.130;13.978;2023-10-31T13:49:30;27.75;;;11.35;;
19030;SDS011;9648;51.130;13.978;2023-10-31T13:52:32;15.85;;;9.93;;
19030;SDS011;9648;51.130;13.978;2023-10-31T13:55:34;5.95;;;4.57;;
19030;SDS011;9648;51.130;13.978;2023-10-31T13:58:35;4.82;;;3.95;;
19030;SDS011;9648;51.130;13.978;2023-10-31T14:01:37;2.78;;;1.90;;
19030;SDS011;9648;51.130;13.978;2023-10-31T14:04:41;11.52;;;4.53;;
19030;SDS011;9648;51.130;13.978;2023-10-31T14:07:42;1.17;;;0.70;;
19030;SDS011;9648;51.130;13.978;2023-10-31T14:10:44;1.00;;;0.50;;
19030;SDS011;9648;51.130;13.978;2023-10-31T14:13:46;0.50;;;0.40;;
19030;SDS011;9648;51.130;13.978;2023-10-31T14:16:48;0.75;;;0.50;;
19030;SDS011;9648;51.130;13.978;2023-10-31T14:19:50;0.77;;;0.52;;
19030;SDS011;9648;51.130;13.978;2023-10-31T14:22:52;1.02;;;0.60;;
19030;SDS011;9648;51.130;13.978;2023-10-31T14:25:54;1.33;;;0.50;;
19030;SDS011;9648;51.130;13.978;2023-10-31T14:28:55;3.08;;;0.85;;
19030;SDS011;9648;51.130;13.978;2023-10-31T14:31:57;0.40;;;0.35;;
19030;SDS011;9648;51.130;13.978;2023-10-31T14:35:08;1.75;;;0.82;;
19030;SDS011;9648;51.130;13.978;2023-10-31T14:38:10;1.17;;;0.65;;
19030;SDS011;9648;51.130;13.978;2023-10-31T14:41:11;1.50;;;0.90;;
19030;SDS011;9648;51.130;13.978;2023-10-31T14:44:14;0.90;;;0.50;;
19030;SDS011;9648;51.130;13.978;2023-10-31T14:47:16;0.75;;;0.40;;
19030;SDS011;9648;51.130;13.978;2023-10-31T14:50:19;0.73;;;0.50;;
19030;SDS011;9648;51.130;13.978;2023-10-31T14:53:21;1.80;;;0.68;;
19030;SDS011;9648;51.130;13.978;2023-10-31T14:56:22;1.10;;;0.67;;
19030;SDS011;9648;51.130;13.978;2023-10-31T14:59:24;2.10;;;1.60;;
19030;SDS011;9648;51.130;13.978;2023-10-31T15:02:25;3.88;;;2.83;;
19030;SDS011;9648;51.130;13.978;2023-10-31T15:05:29;2.30;;;1.40;;
19030;SDS011;9648;51.130;13.978;2023-10-31T15:08:31;1.03;;;0.93;;
19030;SDS011;9648;51.130;13.978;2023-10-31T15:11:32;1.00;;;0.80;;
19030;SDS011;9648;51.130;13.978;2023-10-31T15:14:34;0.80;;;0.80;;
19030;SDS011;9648;51.130;13.978;2023-10-31T15:17:36;0.70;;;0.60;;
19030;SDS011;9648;51.130;13.978;2023-10-31T15:20:40;1.00;;;0.90;;
19030;SDS011;9648;51.130;13.978;2023-10-31T15:23:41;1.37;;;0.70;;
19030;SDS011;9648;51.130;13.978;2023-10-31T15:26:43;0.70;;;0.60;;
19030;SDS011;9648;51.130;13.978;2023-10-31T15:29:45;0.73;;;0.57;;
19030;SDS011;9648;51.130;13.978;2023-10-31T15:32:47;0.83;;;0.63;;
19030;SDS011;9648;51.130;13.978;2023-10-31T15:35:50;0.60;;;0.50;;
19030;SDS011;9648;51.130;13.978;2023-10-31T15:38:52;0.90;;;0.80;;
19030;SDS011;9648;51.130;13.978;2023-10-31T15:41:53;3.33;;;0.80;;
19030;SDS011;9648;51.130;13.978;2023-10-31T15:44:55;0.97;;;0.70;;
19030;SDS011;9648;51.130;13.978;2023-10-31T15:47:56;0.50;;;0.50;;
19030;SDS011;9648;51.130;13.978;2023-10-31T15:50:59;0.60;;;0.60;;
19030;SDS011;9648;51.130;13.978;2023-10-31T15:54:01;1.03;;;0.70;;
19030;SDS011;9648;51.130;13.978;2023-10-31T15:57:03;1.43;;;0.67;;
19030;SDS011;9648;51.130;13.978;2023-10-31T16:00:06;1.23;;;0.83;;
19030;SDS011;9648;51.130;13.978;2023-10-31T16:03:12;1.23;;;0.90;;
19030;SDS011;9648;51.130;13.978;2023-10-31T16:06:15;1.60;;;0.87;;
19030;SDS011;9648;51.130;13.978;2023-10-31T16:09:17;0.73;;;0.67;;
19030;SDS011;9648;51.130;13.978;2023-10-31T16:12:19;1.00;;;0.60;;
19030;SDS011;9648;51.130;13.978;2023-10-31T16:15:21;1.20;;;0.80;;
19030;SDS011;9648;51.130;13.978;2023-10-31T16:18:22;1.53;;;1.00;;
19030;SDS011;9648;51.130;13.978;2023-10-31T16:21:25;1.10;;;0.80;;
19030;SDS011;9648;51.130;13.978;2023-10-31T16:24:27;0.77;;;0.70;;
19030;SDS011;9648;51.130;13.978;2023-10-31T16:27:28;2.10;;;0.90;;
19030;SDS011;9648;51.130;13.978;2023-10-31T16:30:30;1.00;;;0.70;;
19030;SDS011;9648;51.130;13.978;2023-10-31T16:33:32;2.60;;;0.97;;
19030;SDS011;9648;51.130;13.978;2023-10-31T16:36:35;0.90;;;0.70;;
19030;SDS011;9648;51.130;13.978;2023-10-31T16:39:36;1.60;;;0.90;;
19030;SDS011;9648;51.130;13.978;2023-10-31T16:42:38;1.17;;;0.90;;
19030;SDS011;9648;51.130;13.978;2023-10-31T16:45:39;0.93;;;0.70;;
19030;SDS011;9648;51.130;13.978;2023-10-31T16:48:41;1.70;;;1.03;;
19030;SDS011;9648;51.130;13.978;2023-10-31T16:51:45;1.50;;;1.00;;
19030;SDS011;9648;51.130;13.978;2023-10-31T16:54:47;1.30;;;0.90;;
19030;SDS011;9648;51.130;13.978;2023-10-31T16:57:49;0.73;;;0.70;;
19030;SDS011;9648;51.130;13.978;2023-10-31T17:00:50;1.43;;;1.00;;
19030;SDS011;9648;51.130;13.978;2023-10-31T17:03:52;1.00;;;0.80;;
19030;SDS011;9648;51.130;13.978;2023-10-31T17:06:55;1.77;;;1.30;;
19030;SDS011;9648;51.130;13.978;2023-10-31T17:09:56;1.30;;;1.20;;
19030;SDS011;9648;51.130;13.978;2023-10-31T17:12:58;0.93;;;0.87;;
19030;SDS011;9648;51.130;13.978;2023-10-31T17:15:59;1.97;;;1.00;;
19030;SDS011;9648;51.130;13.978;2023-10-31T17:19:02;1.20;;;0.90;;
19030;SDS011;9648;51.130;13.978;2023-10-31T17:22:05;1.37;;;0.90;;
19030;SDS011;9648;51.130;13.978;2023-10-31T17:25:07;0.97;;;0.77;;
19030;SDS011;9648;51.130;13.978;2023-10-31T17:28:09;1.40;;;1.00;;
19030;SDS011;9648;51.130;13.978;2023-10-31T17:31:11;1.57;;;0.80;;
19030;SDS011;9648;51.130;13.978;2023-10-31T17:34:13;1.17;;;0.87;;
19030;SDS011;9648;51.130;13.978;2023-10-31T17:37:17;1.30;;;1.00;;
19030;SDS011;9648;51.130;13.978;2023-10-31T17:40:19;1.90;;;0.90;;
19030;SDS011;9648;51.130;13.978;2023-10-31T17:43:22;1.43;;;0.93;;
19030;SDS011;9648;51.130;13.978;2023-10-31T17:46:24;2.10;;;0.83;;
19030;SDS011;9648;51.130;13.978;2023-10-31T17:49:25;0.97;;;0.73;;
19030;SDS011;9648;51.130;13.978;2023-10-31T17:52:28;1.90;;;0.70;;
19030;SDS011;9648;51.130;13.978;2023-10-31T17:55:30;0.90;;;0.80;;
19030;SDS011;9648;51.130;13.978;2023-10-31T17:58:31;1.43;;;0.73;;
19030;SDS011;9648;51.130;13.978;2023-10-31T18:01:33;0.83;;;0.67;;
19030;SDS011;9648;51.130;13.978;2023-10-31T18:04:37;1.67;;;0.80;;
19030;SDS011;9648;51.130;13.978;2023-10-31T18:07:40;2.80;;;1.17;;
19030;SDS011;9648;51.130;13.978;2023-10-31T18:10:42;2.37;;;1.30;;
19030;SDS011;9648;51.130;13.978;2023-10-31T18:13:43;0.90;;;0.70;;
19030;SDS011;9648;51.130;13.978;2023-10-31T18:16:45;1.63;;;0.90;;